FGGFV LFPN-EGJJ
Flight info
| Callsign | FGGFV |
|---|---|
| Flight time | 1h 2m |
| Altitude | 18000 |
| Route | LGL H490 SENLO G274 BEVAV |
| Aircraft | PC12/L-SDFGRWY/S |
Departure
| Time | 2026-05-04 21:06 |
|---|---|
| Airport | Toussus-le-Noble Airport (LFPN) |
Arrival
| Time | 2026-05-04 22:08 |
|---|---|
| Airport | Jersey Airport (EGJJ) |
| Time | Latitude | Longitude | Altitude | Speed | Heading |
|---|---|---|---|---|---|
| 2026-05-04 20:16 | 48.75026 | 2.11088 | 519 ft | 0 kts | 274° |
| 2026-05-04 20:57 | 48.75026 | 2.11085 | 543 ft | 3 kts | 275° |
| 2026-05-04 20:57 | 48.74981 | 2.11011 | 543 ft | 14 kts | 199° |
| 2026-05-04 20:57 | 48.74907 | 2.10867 | 543 ft | 21 kts | 233° |
| 2026-05-04 20:58 | 48.74849 | 2.10698 | 543 ft | 16 kts | 266° |
| 2026-05-04 20:58 | 48.74845 | 2.10556 | 543 ft | 0 kts | 265° |
| 2026-05-04 20:58 | 48.74845 | 2.10554 | 543 ft | 2 kts | 266° |
| 2026-05-04 20:59 | 48.74847 | 2.10430 | 543 ft | 20 kts | 261° |
| 2026-05-04 20:59 | 48.74835 | 2.10131 | 543 ft | 33 kts | 270° |
| 2026-05-04 20:59 | 48.74831 | 2.09825 | 543 ft | 20 kts | 283° |
| 2026-05-04 20:59 | 48.74920 | 2.09737 | 543 ft | 7 kts | 14° |
| 2026-05-04 21:00 | 48.74921 | 2.09738 | 543 ft | 0 kts | 17° |
| 2026-05-04 21:04 | 48.74924 | 2.09739 | 543 ft | 4 kts | 16° |
| 2026-05-04 21:05 | 48.75018 | 2.09818 | 543 ft | 25 kts | 30° |
| 2026-05-04 21:05 | 48.75142 | 2.09965 | 544 ft | 16 kts | 70° |
| 2026-05-04 21:05 | 48.75218 | 2.10308 | 545 ft | 59 kts | 71° |
| 2026-05-04 21:05 | 48.75404 | 2.11090 | 578 ft | 91 kts | 69° |
| 2026-05-04 21:06 | 48.75604 | 2.12040 | 793 ft | 99 kts | 69° |
| 2026-05-04 21:06 | 48.75816 | 2.13093 | 1044 ft | 110 kts | 71° |
| 2026-05-04 21:06 | 48.76064 | 2.14180 | 1404 ft | 112 kts | 68° |
| 2026-05-04 21:06 | 48.76309 | 2.15366 | 1738 ft | 120 kts | 72° |
| 2026-05-04 21:07 | 48.76534 | 2.16616 | 1908 ft | 137 kts | 76° |
| 2026-05-04 21:07 | 48.76728 | 2.18168 | 1961 ft | 153 kts | 77° |
| 2026-05-04 21:07 | 48.76941 | 2.19602 | 2187 ft | 153 kts | 75° |
| 2026-05-04 21:07 | 48.77199 | 2.21177 | 2440 ft | 154 kts | 75° |
| 2026-05-04 21:08 | 48.77462 | 2.22761 | 2649 ft | 157 kts | 75° |
| 2026-05-04 21:08 | 48.77733 | 2.24388 | 2827 ft | 160 kts | 75° |
| 2026-05-04 21:08 | 48.78003 | 2.26011 | 3007 ft | 162 kts | 75° |
| 2026-05-04 21:08 | 48.78283 | 2.27700 | 3168 ft | 173 kts | 75° |
| 2026-05-04 21:09 | 48.78596 | 2.29574 | 3410 ft | 189 kts | 75° |
| 2026-05-04 21:09 | 48.78907 | 2.31557 | 3762 ft | 195 kts | 79° |
| 2026-05-04 21:09 | 48.78811 | 2.33665 | 3871 ft | 214 kts | 105° |
| 2026-05-04 21:09 | 48.78047 | 2.35709 | 3753 ft | 237 kts | 132° |
| 2026-05-04 21:10 | 48.76691 | 2.37070 | 4138 ft | 232 kts | 157° |
| 2026-05-04 21:10 | 48.75172 | 2.37855 | 4532 ft | 229 kts | 160° |
| 2026-05-04 21:10 | 48.73686 | 2.38627 | 4912 ft | 227 kts | 160° |
| 2026-05-04 21:10 | 48.72169 | 2.39231 | 5273 ft | 226 kts | 175° |
| 2026-05-04 21:11 | 48.70655 | 2.38660 | 5622 ft | 228 kts | 210° |
| 2026-05-04 21:11 | 48.69491 | 2.37018 | 5997 ft | 228 kts | 228° |
| 2026-05-04 21:11 | 48.68468 | 2.35213 | 6374 ft | 228 kts | 227° |
| 2026-05-04 21:11 | 48.67375 | 2.33464 | 6744 ft | 228 kts | 225° |
| 2026-05-04 21:12 | 48.66272 | 2.31771 | 7105 ft | 228 kts | 225° |
| 2026-05-04 21:12 | 48.65163 | 2.30042 | 7480 ft | 228 kts | 225° |
| 2026-05-04 21:12 | 48.64070 | 2.28289 | 7845 ft | 228 kts | 230° |
| 2026-05-04 21:12 | 48.63458 | 2.26091 | 8198 ft | 229 kts | 264° |
| 2026-05-04 21:13 | 48.63726 | 2.23789 | 8683 ft | 224 kts | 290° |
| 2026-05-04 21:13 | 48.64117 | 2.21535 | 9193 ft | 219 kts | 276° |
| 2026-05-04 21:13 | 48.64223 | 2.19260 | 9716 ft | 216 kts | 272° |
| 2026-05-04 21:13 | 48.64340 | 2.17006 | 10201 ft | 213 kts | 276° |
| 2026-05-04 21:14 | 48.64553 | 2.14791 | 10676 ft | 212 kts | 278° |
| 2026-05-04 21:14 | 48.64777 | 2.12621 | 11155 ft | 210 kts | 278° |
| 2026-05-04 21:14 | 48.64989 | 2.10436 | 11644 ft | 209 kts | 277° |
| 2026-05-04 21:14 | 48.65198 | 2.08261 | 12145 ft | 208 kts | 277° |
| 2026-05-04 21:15 | 48.65405 | 2.06102 | 12652 ft | 207 kts | 277° |
| 2026-05-04 21:15 | 48.65542 | 2.04677 | 12994 ft | 206 kts | 277° |
| 2026-05-04 21:15 | 48.65814 | 2.01832 | 13685 ft | 205 kts | 277° |
| 2026-05-04 21:15 | 48.65949 | 2.00420 | 14005 ft | 204 kts | 277° |
| 2026-05-04 21:16 | 48.66152 | 1.98298 | 14477 ft | 203 kts | 277° |
| 2026-05-04 21:16 | 48.66353 | 1.96189 | 14953 ft | 201 kts | 277° |
| 2026-05-04 21:16 | 48.66551 | 1.94114 | 15441 ft | 199 kts | 277° |
| 2026-05-04 21:16 | 48.66747 | 1.92036 | 15931 ft | 197 kts | 277° |
| 2026-05-04 21:17 | 48.66941 | 1.89993 | 16429 ft | 194 kts | 277° |
| 2026-05-04 21:17 | 48.67129 | 1.88003 | 16927 ft | 191 kts | 277° |
| 2026-05-04 21:17 | 48.67316 | 1.86024 | 17439 ft | 188 kts | 276° |
| 2026-05-04 21:17 | 48.67498 | 1.84084 | 17955 ft | 184 kts | 276° |
| 2026-05-04 21:18 | 48.67680 | 1.82143 | 18265 ft | 192 kts | 276° |
| 2026-05-04 21:18 | 48.67875 | 1.80064 | 18284 ft | 213 kts | 277° |
| 2026-05-04 21:18 | 48.68097 | 1.77700 | 18141 ft | 237 kts | 277° |
| 2026-05-04 21:18 | 48.68337 | 1.75136 | 18071 ft | 253 kts | 277° |
| 2026-05-04 21:19 | 48.68591 | 1.72421 | 17965 ft | 266 kts | 277° |
| 2026-05-04 21:19 | 48.68850 | 1.69633 | 17954 ft | 273 kts | 277° |
| 2026-05-04 21:19 | 48.69116 | 1.66759 | 17951 ft | 277 kts | 277° |
| 2026-05-04 21:19 | 48.69386 | 1.63847 | 17954 ft | 280 kts | 277° |
| 2026-05-04 21:20 | 48.69657 | 1.60905 | 17950 ft | 283 kts | 277° |
| 2026-05-04 21:20 | 48.69930 | 1.57944 | 17950 ft | 284 kts | 277° |
| 2026-05-04 21:20 | 48.70202 | 1.54968 | 17952 ft | 286 kts | 277° |
| 2026-05-04 21:20 | 48.70472 | 1.52007 | 17952 ft | 287 kts | 277° |
| 2026-05-04 21:21 | 48.70745 | 1.49013 | 17947 ft | 285 kts | 276° |
| 2026-05-04 21:21 | 48.71012 | 1.46080 | 17944 ft | 277 kts | 276° |
| 2026-05-04 21:21 | 48.71269 | 1.43238 | 17941 ft | 273 kts | 276° |
| 2026-05-04 21:21 | 48.71525 | 1.40400 | 17931 ft | 270 kts | 276° |
| 2026-05-04 21:22 | 48.71777 | 1.37596 | 17934 ft | 267 kts | 276° |
| 2026-05-04 21:22 | 48.72029 | 1.34801 | 17938 ft | 266 kts | 276° |
| 2026-05-04 21:22 | 48.72273 | 1.32064 | 17933 ft | 265 kts | 276° |
| 2026-05-04 21:22 | 48.72521 | 1.29294 | 17931 ft | 264 kts | 276° |
| 2026-05-04 21:23 | 48.72767 | 1.26527 | 17934 ft | 263 kts | 276° |
| 2026-05-04 21:23 | 48.73011 | 1.23778 | 17935 ft | 263 kts | 276° |
| 2026-05-04 21:23 | 48.73251 | 1.21066 | 17932 ft | 263 kts | 276° |
| 2026-05-04 21:23 | 48.73494 | 1.18320 | 17934 ft | 262 kts | 276° |
| 2026-05-04 21:24 | 48.73736 | 1.15573 | 17936 ft | 262 kts | 276° |
| 2026-05-04 21:24 | 48.73978 | 1.12823 | 17937 ft | 262 kts | 276° |
| 2026-05-04 21:24 | 48.74216 | 1.10087 | 17934 ft | 262 kts | 276° |
| 2026-05-04 21:24 | 48.74454 | 1.07370 | 17934 ft | 262 kts | 276° |
| 2026-05-04 21:25 | 48.74694 | 1.04619 | 17933 ft | 262 kts | 275° |
| 2026-05-04 21:25 | 48.74930 | 1.01908 | 17936 ft | 262 kts | 275° |
| 2026-05-04 21:25 | 48.75167 | 0.99156 | 17938 ft | 262 kts | 275° |
| 2026-05-04 21:25 | 48.75405 | 0.96406 | 17940 ft | 262 kts | 275° |
| 2026-05-04 21:26 | 48.75641 | 0.93662 | 17939 ft | 262 kts | 275° |
| 2026-05-04 21:26 | 48.75875 | 0.90950 | 17941 ft | 262 kts | 275° |
| 2026-05-04 21:26 | 48.76109 | 0.88201 | 17940 ft | 262 kts | 275° |
| 2026-05-04 21:26 | 48.76345 | 0.85445 | 17939 ft | 262 kts | 275° |
| 2026-05-04 21:27 | 48.76576 | 0.82725 | 17940 ft | 262 kts | 275° |
| 2026-05-04 21:27 | 48.76810 | 0.79973 | 17948 ft | 262 kts | 275° |
| 2026-05-04 21:27 | 48.77040 | 0.77257 | 17944 ft | 262 kts | 275° |
| 2026-05-04 21:27 | 48.77272 | 0.74502 | 17944 ft | 262 kts | 275° |
| 2026-05-04 21:28 | 48.77504 | 0.71747 | 17949 ft | 262 kts | 275° |
| 2026-05-04 21:28 | 48.77732 | 0.69034 | 17948 ft | 262 kts | 275° |
| 2026-05-04 21:28 | 48.77963 | 0.66273 | 17952 ft | 262 kts | 275° |
| 2026-05-04 21:28 | 48.78192 | 0.63526 | 17953 ft | 263 kts | 275° |
| 2026-05-04 21:29 | 48.78418 | 0.60805 | 17954 ft | 263 kts | 275° |
| 2026-05-04 21:29 | 48.78647 | 0.58047 | 17958 ft | 263 kts | 275° |
| 2026-05-04 21:29 | 48.78875 | 0.55283 | 17957 ft | 263 kts | 275° |
| 2026-05-04 21:29 | 48.79140 | 0.52538 | 17953 ft | 263 kts | 281° |
| 2026-05-04 21:30 | 48.79628 | 0.49902 | 17952 ft | 263 kts | 284° |
| 2026-05-04 21:30 | 48.80128 | 0.47216 | 17954 ft | 263 kts | 283° |
| 2026-05-04 21:30 | 48.80610 | 0.44524 | 17954 ft | 264 kts | 283° |
| 2026-05-04 21:30 | 48.81092 | 0.41838 | 17955 ft | 264 kts | 283° |
| 2026-05-04 21:31 | 48.82061 | 0.36490 | 17960 ft | 264 kts | 283° |
| 2026-05-04 21:31 | 48.82546 | 0.33799 | 17959 ft | 264 kts | 283° |
| 2026-05-04 21:31 | 48.83031 | 0.31107 | 17963 ft | 264 kts | 283° |
| 2026-05-04 21:32 | 48.83516 | 0.28408 | 17963 ft | 264 kts | 283° |
| 2026-05-04 21:32 | 48.83995 | 0.25739 | 17965 ft | 265 kts | 283° |
| 2026-05-04 21:32 | 48.84480 | 0.23037 | 17968 ft | 265 kts | 283° |
| 2026-05-04 21:32 | 48.84963 | 0.20341 | 17972 ft | 265 kts | 283° |
| 2026-05-04 21:33 | 48.85446 | 0.17636 | 17968 ft | 265 kts | 283° |
| 2026-05-04 21:33 | 48.85930 | 0.14925 | 17972 ft | 265 kts | 283° |
| 2026-05-04 21:33 | 48.86407 | 0.12250 | 17974 ft | 265 kts | 283° |
| 2026-05-04 21:33 | 48.86890 | 0.09532 | 17975 ft | 269 kts | 283° |
| 2026-05-04 21:34 | 48.87378 | 0.06788 | 17976 ft | 268 kts | 283° |
| 2026-05-04 21:34 | 48.87864 | 0.04052 | 17973 ft | 268 kts | 283° |
| 2026-05-04 21:34 | 48.88348 | 0.01320 | 17979 ft | 267 kts | 283° |
| 2026-05-04 21:34 | 48.88830 | -0.01406 | 17979 ft | 267 kts | 283° |
| 2026-05-04 21:35 | 48.89313 | -0.04139 | 17980 ft | 267 kts | 283° |
| 2026-05-04 21:35 | 48.89789 | -0.06842 | 17983 ft | 267 kts | 283° |
| 2026-05-04 21:35 | 48.90272 | -0.09582 | 17984 ft | 267 kts | 283° |
| 2026-05-04 21:35 | 48.90753 | -0.12320 | 17986 ft | 267 kts | 283° |
| 2026-05-04 21:36 | 48.91232 | -0.15053 | 17991 ft | 267 kts | 283° |
| 2026-05-04 21:36 | 48.91707 | -0.17759 | 17990 ft | 268 kts | 283° |
| 2026-05-04 21:36 | 48.92188 | -0.20504 | 17990 ft | 268 kts | 283° |
| 2026-05-04 21:36 | 48.92668 | -0.23258 | 17993 ft | 268 kts | 283° |
| 2026-05-04 21:37 | 48.93143 | -0.25976 | 17994 ft | 269 kts | 283° |
| 2026-05-04 21:37 | 48.93613 | -0.28744 | 17997 ft | 269 kts | 283° |
| 2026-05-04 21:37 | 48.94075 | -0.31502 | 17996 ft | 269 kts | 283° |
| 2026-05-04 21:37 | 48.94544 | -0.34275 | 17995 ft | 270 kts | 283° |
| 2026-05-04 21:38 | 48.95008 | -0.37011 | 17997 ft | 270 kts | 283° |
| 2026-05-04 21:38 | 48.95476 | -0.39789 | 17998 ft | 271 kts | 283° |
| 2026-05-04 21:38 | 48.95943 | -0.42567 | 17998 ft | 271 kts | 283° |
| 2026-05-04 21:38 | 48.96412 | -0.45347 | 17998 ft | 271 kts | 283° |
| 2026-05-04 21:39 | 48.96880 | -0.48137 | 18000 ft | 271 kts | 283° |
| 2026-05-04 21:39 | 48.97346 | -0.50919 | 18000 ft | 271 kts | 283° |
| 2026-05-04 21:39 | 48.97806 | -0.53666 | 18000 ft | 271 kts | 283° |
| 2026-05-04 21:39 | 48.98271 | -0.56452 | 17997 ft | 272 kts | 283° |
| 2026-05-04 21:40 | 48.98739 | -0.59258 | 17995 ft | 271 kts | 283° |
| 2026-05-04 21:40 | 48.99204 | -0.62049 | 17999 ft | 272 kts | 283° |
| 2026-05-04 21:40 | 48.99664 | -0.64819 | 17998 ft | 272 kts | 283° |
| 2026-05-04 21:40 | 49.00129 | -0.67618 | 17998 ft | 272 kts | 283° |
| 2026-05-04 21:41 | 49.00588 | -0.70386 | 18004 ft | 272 kts | 283° |
| 2026-05-04 21:41 | 49.01049 | -0.73179 | 18002 ft | 272 kts | 283° |
| 2026-05-04 21:41 | 49.01513 | -0.75980 | 18001 ft | 272 kts | 282° |
| 2026-05-04 21:41 | 49.01975 | -0.78787 | 18001 ft | 272 kts | 282° |
| 2026-05-04 21:42 | 49.02432 | -0.81560 | 17999 ft | 272 kts | 282° |
| 2026-05-04 21:42 | 49.02891 | -0.84355 | 18001 ft | 272 kts | 282° |
| 2026-05-04 21:42 | 49.03345 | -0.87123 | 17998 ft | 272 kts | 282° |
| 2026-05-04 21:42 | 49.03803 | -0.89921 | 17999 ft | 272 kts | 282° |
| 2026-05-04 21:43 | 49.04261 | -0.92719 | 18001 ft | 272 kts | 282° |
| 2026-05-04 21:43 | 49.04718 | -0.95516 | 18000 ft | 271 kts | 282° |
| 2026-05-04 21:43 | 49.05175 | -0.98322 | 17998 ft | 271 kts | 282° |
| 2026-05-04 21:43 | 49.05624 | -1.01087 | 18007 ft | 271 kts | 282° |
| 2026-05-04 21:44 | 49.06081 | -1.03898 | 18000 ft | 272 kts | 282° |
| 2026-05-04 21:44 | 49.06535 | -1.06694 | 18000 ft | 272 kts | 282° |
| 2026-05-04 21:44 | 49.06989 | -1.09492 | 18001 ft | 272 kts | 282° |
| 2026-05-04 21:44 | 49.07437 | -1.12260 | 17998 ft | 272 kts | 282° |
| 2026-05-04 21:45 | 49.07890 | -1.15067 | 18000 ft | 272 kts | 282° |
| 2026-05-04 21:45 | 49.08344 | -1.17876 | 17995 ft | 272 kts | 282° |
| 2026-05-04 21:45 | 49.08793 | -1.20660 | 17995 ft | 272 kts | 282° |
| 2026-05-04 21:45 | 49.09247 | -1.23481 | 17997 ft | 272 kts | 282° |
| 2026-05-04 21:46 | 49.09699 | -1.26292 | 18003 ft | 272 kts | 282° |
| 2026-05-04 21:46 | 49.10146 | -1.29073 | 17999 ft | 272 kts | 281° |
| 2026-05-04 21:46 | 49.10597 | -1.31888 | 17997 ft | 272 kts | 281° |
| 2026-05-04 21:46 | 49.10828 | -1.33631 | 17987 ft | 269 kts | 274° |
| 2026-05-04 21:47 | 49.10621 | -1.36410 | 17984 ft | 264 kts | 251° |
| 2026-05-04 21:47 | 49.10090 | -1.39089 | 17991 ft | 264 kts | 251° |
| 2026-05-04 21:47 | 49.09704 | -1.41797 | 17990 ft | 266 kts | 257° |
| 2026-05-04 21:47 | 49.09442 | -1.44591 | 17996 ft | 266 kts | 259° |
| 2026-05-04 21:48 | 49.09155 | -1.47398 | 17996 ft | 266 kts | 257° |
| 2026-05-04 21:48 | 49.08830 | -1.50186 | 17999 ft | 266 kts | 257° |
| 2026-05-04 21:48 | 49.08513 | -1.52948 | 17996 ft | 266 kts | 257° |
| 2026-05-04 21:48 | 49.08202 | -1.55734 | 18005 ft | 267 kts | 257° |
| 2026-05-04 21:49 | 49.07888 | -1.58530 | 18005 ft | 267 kts | 257° |
| 2026-05-04 21:49 | 49.07571 | -1.61332 | 18003 ft | 267 kts | 257° |
| 2026-05-04 21:49 | 49.07258 | -1.64093 | 18001 ft | 267 kts | 257° |
| 2026-05-04 21:49 | 49.06940 | -1.66892 | 18006 ft | 267 kts | 257° |
| 2026-05-04 21:50 | 49.06714 | -1.69719 | 17994 ft | 268 kts | 268° |
| 2026-05-04 21:50 | 49.06861 | -1.72535 | 17986 ft | 269 kts | 272° |
| 2026-05-04 21:50 | 49.06982 | -1.75388 | 17991 ft | 269 kts | 270° |
| 2026-05-04 21:50 | 49.07085 | -1.78244 | 17996 ft | 269 kts | 271° |
| 2026-05-04 21:51 | 49.07205 | -1.81070 | 17993 ft | 269 kts | 271° |
| 2026-05-04 21:51 | 49.07329 | -1.83925 | 17996 ft | 269 kts | 271° |
| 2026-05-04 21:51 | 49.07450 | -1.86786 | 17999 ft | 269 kts | 271° |
| 2026-05-04 21:51 | 49.07567 | -1.89613 | 18002 ft | 269 kts | 271° |
| 2026-05-04 21:52 | 49.07685 | -1.92467 | 17996 ft | 269 kts | 271° |
| 2026-05-04 21:52 | 49.07802 | -1.95314 | 17996 ft | 269 kts | 271° |
| 2026-05-04 21:52 | 49.07919 | -1.98167 | 17990 ft | 269 kts | 271° |
| 2026-05-04 21:52 | 49.08034 | -2.00974 | 17974 ft | 253 kts | 271° |
| 2026-05-04 21:53 | 49.08141 | -2.03599 | 17604 ft | 250 kts | 271° |
| 2026-05-04 21:53 | 49.08245 | -2.06267 | 17225 ft | 253 kts | 271° |
| 2026-05-04 21:53 | 49.08353 | -2.08956 | 16847 ft | 254 kts | 271° |
| 2026-05-04 21:53 | 49.08461 | -2.11657 | 16399 ft | 255 kts | 271° |
| 2026-05-04 21:54 | 49.08567 | -2.14315 | 15893 ft | 252 kts | 272° |
| 2026-05-04 21:54 | 49.08671 | -2.16991 | 15390 ft | 252 kts | 272° |
| 2026-05-04 21:54 | 49.08775 | -2.19654 | 14896 ft | 251 kts | 272° |
| 2026-05-04 21:54 | 49.08878 | -2.22321 | 14408 ft | 251 kts | 272° |
| 2026-05-04 21:55 | 49.08980 | -2.24952 | 13937 ft | 251 kts | 272° |
| 2026-05-04 21:55 | 49.09080 | -2.27542 | 13411 ft | 237 kts | 272° |
| 2026-05-04 21:55 | 49.09173 | -2.29994 | 12868 ft | 226 kts | 272° |
| 2026-05-04 21:55 | 49.09263 | -2.32354 | 12330 ft | 218 kts | 273° |
| 2026-05-04 21:56 | 49.09347 | -2.34601 | 11811 ft | 211 kts | 273° |
| 2026-05-04 21:56 | 49.09430 | -2.36820 | 11293 ft | 206 kts | 273° |
| 2026-05-04 21:56 | 49.09511 | -2.38981 | 10783 ft | 201 kts | 273° |
| 2026-05-04 21:56 | 49.09589 | -2.41076 | 10295 ft | 198 kts | 273° |
| 2026-05-04 21:57 | 49.09666 | -2.43163 | 9792 ft | 194 kts | 274° |
| 2026-05-04 21:57 | 49.09741 | -2.45190 | 9259 ft | 192 kts | 274° |
| 2026-05-04 21:57 | 49.09814 | -2.47218 | 8734 ft | 190 kts | 274° |
| 2026-05-04 21:57 | 49.09888 | -2.49221 | 8216 ft | 188 kts | 274° |
| 2026-05-04 21:58 | 49.09960 | -2.51202 | 7709 ft | 186 kts | 274° |
| 2026-05-04 21:58 | 49.10053 | -2.53154 | 7205 ft | 182 kts | 280° |
| 2026-05-04 21:58 | 49.10481 | -2.54975 | 6710 ft | 185 kts | 301° |
| 2026-05-04 21:58 | 49.11251 | -2.56505 | 6213 ft | 179 kts | 319° |
| 2026-05-04 21:59 | 49.12258 | -2.57578 | 5694 ft | 174 kts | 336° |
| 2026-05-04 21:59 | 49.13342 | -2.58115 | 5470 ft | 154 kts | 352° |
| 2026-05-04 21:59 | 49.14403 | -2.58199 | 4979 ft | 154 kts | 8° |
| 2026-05-04 21:59 | 49.15438 | -2.57865 | 4466 ft | 154 kts | 18° |
| 2026-05-04 22:00 | 49.16486 | -2.57490 | 3954 ft | 155 kts | 12° |
| 2026-05-04 22:00 | 49.17201 | -2.57226 | 3605 ft | 154 kts | 20° |
| 2026-05-04 22:01 | 49.17316 | -2.57153 | 3546 ft | 154 kts | 25° |
| 2026-05-04 22:01 | 49.18001 | -2.55971 | 3017 ft | 156 kts | 72° |
| 2026-05-04 22:01 | 49.17899 | -2.54448 | 2984 ft | 136 kts | 105° |
| 2026-05-04 22:01 | 49.17932 | -2.53073 | 2998 ft | 137 kts | 68° |
| 2026-05-04 22:02 | 49.18147 | -2.51666 | 3014 ft | 135 kts | 85° |
| 2026-05-04 22:02 | 49.18237 | -2.50201 | 3014 ft | 143 kts | 81° |
| 2026-05-04 22:02 | 49.18353 | -2.48658 | 3012 ft | 148 kts | 81° |
| 2026-05-04 22:02 | 49.18488 | -2.47110 | 3005 ft | 139 kts | 80° |
| 2026-05-04 22:03 | 49.18565 | -2.46178 | 2988 ft | 129 kts | 81° |
| 2026-05-04 22:03 | 49.18704 | -2.44509 | 2993 ft | 111 kts | 80° |
| 2026-05-04 22:03 | 49.18771 | -2.43721 | 2986 ft | 110 kts | 80° |
| 2026-05-04 22:03 | 49.18869 | -2.42563 | 2988 ft | 111 kts | 79° |
| 2026-05-04 22:04 | 49.19002 | -2.40989 | 2956 ft | 116 kts | 80° |
| 2026-05-04 22:04 | 49.19073 | -2.40144 | 2862 ft | 121 kts | 79° |
| 2026-05-04 22:04 | 49.19183 | -2.38840 | 2697 ft | 125 kts | 80° |
| 2026-05-04 22:04 | 49.19294 | -2.37515 | 2530 ft | 123 kts | 79° |
| 2026-05-04 22:05 | 49.19394 | -2.36261 | 2389 ft | 118 kts | 79° |
| 2026-05-04 22:05 | 49.19496 | -2.35003 | 2193 ft | 118 kts | 79° |
| 2026-05-04 22:05 | 49.19614 | -2.33774 | 2049 ft | 115 kts | 78° |
| 2026-05-04 22:05 | 49.19715 | -2.32591 | 1968 ft | 113 kts | 79° |
| 2026-05-04 22:06 | 49.19802 | -2.31393 | 1810 ft | 115 kts | 81° |
| 2026-05-04 22:06 | 49.19907 | -2.30160 | 1635 ft | 117 kts | 77° |
| 2026-05-04 22:06 | 49.20015 | -2.28928 | 1462 ft | 118 kts | 79° |
| 2026-05-04 22:06 | 49.20128 | -2.27695 | 1277 ft | 116 kts | 79° |
| 2026-05-04 22:07 | 49.20216 | -2.26480 | 1135 ft | 114 kts | 79° |
| 2026-05-04 22:07 | 49.20318 | -2.25277 | 966 ft | 114 kts | 78° |
| 2026-05-04 22:07 | 49.20416 | -2.24076 | 802 ft | 114 kts | 78° |
| 2026-05-04 22:07 | 49.20517 | -2.22879 | 615 ft | 114 kts | 81° |
| 2026-05-04 22:08 | 49.20619 | -2.21707 | 474 ft | 114 kts | 79° |
| 2026-05-04 22:08 | 49.20717 | -2.20513 | 309 ft | 112 kts | 82° |
| 2026-05-04 22:08 | 49.20804 | -2.19580 | 282 ft | 51 kts | 78° |
| 2026-05-04 22:08 | 49.20820 | -2.19292 | 282 ft | 30 kts | 87° |
| 2026-05-04 22:09 | 49.20773 | -2.18951 | 281 ft | 26 kts | 111° |
| 2026-05-04 22:09 | 49.20747 | -2.18865 | 280 ft | 0 kts | 136° |
| 2026-05-04 22:09 | 49.20702 | -2.18883 | 280 ft | 14 kts | 258° |
| 2026-05-04 22:09 | 49.20687 | -2.19111 | 280 ft | 22 kts | 261° |
| 2026-05-04 22:10 | 49.20710 | -2.19368 | 281 ft | 25 kts | 280° |
| 2026-05-04 22:10 | 49.20683 | -2.19609 | 280 ft | 23 kts | 240° |
| 2026-05-04 22:10 | 49.20614 | -2.19743 | 280 ft | 14 kts | 263° |
| 2026-05-04 22:10 | 49.20597 | -2.19913 | 280 ft | 16 kts | 233° |
| 2026-05-04 22:11 | 49.20493 | -2.19923 | 280 ft | 18 kts | 175° |
| 2026-05-04 22:11 | 49.20436 | -2.19818 | 280 ft | 19 kts | 84° |
| 2026-05-04 22:11 | 49.20439 | -2.19638 | 280 ft | 16 kts | 102° |
| 2026-05-04 22:11 | 49.20406 | -2.19575 | 280 ft | 5 kts | 213° |
| 2026-05-04 22:12 | 49.20381 | -2.19589 | 280 ft | 0 kts | 195° |